createdAt,value
2022-12-07T00:01:07.819Z,22.23
2022-12-07T00:03:13.488Z,21.95
2022-12-07T00:05:17.781Z,21.50
2022-12-07T00:07:27.590Z,21.30
2022-12-07T00:11:36.240Z,21.52
2022-12-07T00:13:41.234Z,21.23
2022-12-07T00:15:45.883Z,21.63
2022-12-07T00:17:50.052Z,21.45
2022-12-07T00:19:55.662Z,21.05
2022-12-07T00:21:59.762Z,22.60
2022-12-07T00:24:05.161Z,20.95
2022-12-07T00:26:11.000Z,20.00
2022-12-07T00:28:15.097Z,22.05
2022-12-07T00:30:19.595Z,22.83
2022-12-07T00:32:24.066Z,23.20
2022-12-07T00:34:28.273Z,23.58
2022-12-07T00:36:34.162Z,21.80
2022-12-07T00:38:39.852Z,22.77
2022-12-07T00:40:43.967Z,23.17
2022-12-07T00:42:48.217Z,22.40
2022-12-07T00:44:52.455Z,24.10
2022-12-07T00:46:56.844Z,22.88
2022-12-07T00:49:00.876Z,22.77
2022-12-07T00:51:05.752Z,21.92
2022-12-07T00:53:11.178Z,22.38
2022-12-07T00:55:15.294Z,23.20
2022-12-07T00:57:19.456Z,21.98
2022-12-07T00:59:23.575Z,22.73
2022-12-07T01:01:30.784Z,24.23
2022-12-07T01:03:34.995Z,22.73
2022-12-07T01:05:39.492Z,21.92
2022-12-07T01:07:43.732Z,22.50
2022-12-07T01:09:50.234Z,22.10
2022-12-07T01:11:54.374Z,22.80
2022-12-07T01:14:00.088Z,23.17
2022-12-07T01:16:06.451Z,24.08
2022-12-07T01:18:10.856Z,23.88
2022-12-07T01:20:16.777Z,23.95
2022-12-07T01:22:20.964Z,24.33
2022-12-07T01:24:25.210Z,23.38
2022-12-07T01:26:30.763Z,25.52
2022-12-07T01:28:35.336Z,26.45
2022-12-07T01:30:39.467Z,24.13
2022-12-07T01:32:43.564Z,24.83
2022-12-07T01:34:50.223Z,23.73
2022-12-07T01:36:54.276Z,22.83
2022-12-07T01:39:00.158Z,23.25
2022-12-07T01:41:04.635Z,25.52
2022-12-07T01:43:18.687Z,24.80
2022-12-07T01:45:43.498Z,25.52
2022-12-07T01:47:53.511Z,25.38
2022-12-07T01:52:12.822Z,22.65
2022-12-07T01:54:19.379Z,25.15
2022-12-07T01:56:28.470Z,25.27
2022-12-07T01:58:34.192Z,26.03
2022-12-07T02:00:38.415Z,25.65
2022-12-07T02:02:49.745Z,26.50
2022-12-07T02:04:55.861Z,26.52
2022-12-07T02:07:00.337Z,28.35
2022-12-07T02:09:05.282Z,28.45
2022-12-07T02:11:10.351Z,25.05
2022-12-07T02:13:17.648Z,25.90
2022-12-07T02:15:27.845Z,25.83
2022-12-07T02:17:37.783Z,25.23
2022-12-07T02:20:11.302Z,25.38
2022-12-07T02:22:34.178Z,27.42
2022-12-07T02:24:55.020Z,23.60
2022-12-07T02:27:30.687Z,27.13
2022-12-07T02:29:41.191Z,27.30
2022-12-07T02:31:49.843Z,25.13
2022-12-07T02:33:59.723Z,26.02
2022-12-07T02:36:09.030Z,26.88
2022-12-07T02:38:18.883Z,26.17
2022-12-07T02:40:31.316Z,25.10
2022-12-07T02:42:40.535Z,26.23
2022-12-07T02:44:48.190Z,24.85
2022-12-07T02:46:57.006Z,25.77
2022-12-07T02:49:02.023Z,23.30
2022-12-07T02:51:06.567Z,25.25
2022-12-07T02:53:32.445Z,25.20
2022-12-07T02:55:43.258Z,25.77
2022-12-07T02:58:15.539Z,24.55
2022-12-07T03:00:22.505Z,24.42
2022-12-07T03:02:33.547Z,25.00
2022-12-07T03:04:47.736Z,23.67
2022-12-07T03:06:58.808Z,23.60
2022-12-07T03:09:14.431Z,23.38
2022-12-07T03:11:26.707Z,21.50
2022-12-07T03:13:35.886Z,22.67
2022-12-07T03:15:48.440Z,22.33
2022-12-07T03:17:55.209Z,21.35
2022-12-07T03:20:02.232Z,21.58
2022-12-07T03:22:11.195Z,21.92
2022-12-07T03:24:19.340Z,22.65
2022-12-07T03:26:26.758Z,21.83
2022-12-07T03:28:36.233Z,23.35
2022-12-07T03:30:46.147Z,23.30
2022-12-07T03:35:02.875Z,23.02
2022-12-07T03:37:13.730Z,22.80
2022-12-07T03:39:25.366Z,22.98
2022-12-07T03:41:33.861Z,22.52
2022-12-07T03:43:39.203Z,23.40
2022-12-07T03:45:49.230Z,23.85
2022-12-07T03:50:06.860Z,22.75
2022-12-07T03:52:18.238Z,22.27
2022-12-07T03:54:26.126Z,22.77
2022-12-07T03:56:32.645Z,23.35
2022-12-07T03:58:37.458Z,22.10
2022-12-07T04:00:45.057Z,23.13
2022-12-07T04:02:49.462Z,22.23
2022-12-07T04:04:54.062Z,22.60
2022-12-07T04:06:58.163Z,22.67
2022-12-07T04:09:02.419Z,22.23
2022-12-07T04:11:06.783Z,22.23
2022-12-07T04:13:10.951Z,22.15
2022-12-07T04:15:15.081Z,22.55
2022-12-07T04:17:20.590Z,22.15
2022-12-07T04:19:27.317Z,21.90
2022-12-07T04:21:31.415Z,21.45
2022-12-07T04:23:35.604Z,20.90
2022-12-07T04:25:39.733Z,21.85
2022-12-07T04:27:43.961Z,20.27
2022-12-07T04:29:48.249Z,19.05
2022-12-07T04:31:52.861Z,20.25
2022-12-07T04:33:58.449Z,20.08
2022-12-07T04:36:02.647Z,20.45
2022-12-07T04:38:07.398Z,19.98
2022-12-07T04:40:13.801Z,19.00
2022-12-07T04:42:18.051Z,18.70
2022-12-07T04:44:23.181Z,19.70
2022-12-07T04:46:28.718Z,19.10
2022-12-07T04:48:33.260Z,20.10
2022-12-07T04:50:44.595Z,18.65
2022-12-07T04:52:50.386Z,18.60
2022-12-07T04:54:54.474Z,18.60
2022-12-07T04:56:58.567Z,19.38
2022-12-07T04:59:03.026Z,18.40
2022-12-07T05:01:07.288Z,18.70
2022-12-07T05:03:11.554Z,19.40
2022-12-07T05:05:15.810Z,19.10
2022-12-07T05:07:21.260Z,19.58
2022-12-07T05:09:25.641Z,18.92
2022-12-07T05:11:41.951Z,20.40
2022-12-07T05:13:46.366Z,18.63
2022-12-07T05:15:50.811Z,19.13
2022-12-07T05:17:55.004Z,20.58
2022-12-07T05:19:59.324Z,21.17
2022-12-07T05:22:03.514Z,19.52
2022-12-07T05:24:10.678Z,20.15
2022-12-07T05:26:14.980Z,19.85
2022-12-07T05:28:19.063Z,18.63
2022-12-07T05:30:23.406Z,18.70
2022-12-07T05:32:27.566Z,21.25
2022-12-07T05:34:31.797Z,18.83
2022-12-07T05:36:35.939Z,20.45
2022-12-07T05:38:40.074Z,20.40
2022-12-07T05:40:45.793Z,20.50
2022-12-07T05:42:49.042Z,21.40
2022-12-07T05:44:53.117Z,20.60
2022-12-07T05:46:57.382Z,22.15
2022-12-07T05:49:01.522Z,22.15
2022-12-07T05:51:05.841Z,22.05
2022-12-07T05:53:09.924Z,21.63
2022-12-07T05:55:14.267Z,21.33
2022-12-07T05:57:20.044Z,21.05
2022-12-07T05:59:28.145Z,20.80
2022-12-07T06:01:32.341Z,22.63
2022-12-07T06:03:36.605Z,19.80
2022-12-07T06:05:40.805Z,21.60
2022-12-07T06:07:45.174Z,21.77
2022-12-07T06:09:49.368Z,20.92
2022-12-07T06:12:11.365Z,21.17
2022-12-07T06:14:16.980Z,21.38
2022-12-07T06:16:21.306Z,20.58
2022-12-07T06:18:25.403Z,20.05
2022-12-07T06:20:29.718Z,21.40
2022-12-07T06:22:33.783Z,22.73
2022-12-07T06:24:38.328Z,20.98
2022-12-07T06:26:42.808Z,19.88
2022-12-07T06:28:46.946Z,20.52
2022-12-07T06:31:00.864Z,20.35
2022-12-07T06:33:05.010Z,18.77
2022-12-07T06:35:10.254Z,21.02
2022-12-07T06:37:14.530Z,20.02
2022-12-07T06:39:19.639Z,20.55
2022-12-07T06:41:24.099Z,22.92
2022-12-07T06:43:28.536Z,22.60
2022-12-07T06:45:32.771Z,22.15
2022-12-07T06:47:42.548Z,23.02
2022-12-07T06:49:50.470Z,19.73
2022-12-07T06:51:54.689Z,20.90
2022-12-07T06:53:59.147Z,18.35
2022-12-07T06:56:03.322Z,18.25
2022-12-07T06:58:07.649Z,18.83
2022-12-07T07:00:19.899Z,19.27
2022-12-07T07:02:25.886Z,19.73
2022-12-07T07:04:31.617Z,18.30
2022-12-07T07:06:35.807Z,20.90
2022-12-07T07:08:41.200Z,19.67
2022-12-07T07:10:46.131Z,20.42
2022-12-07T07:12:55.677Z,18.85
2022-12-07T07:15:01.461Z,20.55
2022-12-07T07:17:08.677Z,19.85
2022-12-07T07:19:12.987Z,20.48
2022-12-07T07:21:18.780Z,21.25
2022-12-07T07:23:23.701Z,22.30
2022-12-07T07:25:27.827Z,19.13
2022-12-07T07:27:32.041Z,22.02
2022-12-07T07:29:36.222Z,21.42
2022-12-07T07:31:40.459Z,19.98
2022-12-07T07:33:44.853Z,19.25
2022-12-07T07:35:49.053Z,20.15
2022-12-07T07:37:54.596Z,20.33
2022-12-07T07:39:59.071Z,20.85
2022-12-07T07:42:03.445Z,19.27
2022-12-07T07:44:10.316Z,20.48
2022-12-07T07:46:14.672Z,17.33
2022-12-07T07:48:18.822Z,18.38
2022-12-07T07:50:26.366Z,16.58
2022-12-07T07:52:30.538Z,16.77
2022-12-07T07:54:36.184Z,17.58
2022-12-07T07:56:40.404Z,17.75
2022-12-07T07:58:44.671Z,17.67
2022-12-07T08:00:49.145Z,19.13
2022-12-07T08:02:53.476Z,19.08
2022-12-07T08:04:57.944Z,18.15
2022-12-07T08:07:02.114Z,20.67
2022-12-07T08:09:07.604Z,21.23
2022-12-07T08:11:13.502Z,20.42
2022-12-07T08:13:19.156Z,20.60
2022-12-07T08:15:23.310Z,18.15
2022-12-07T08:17:28.178Z,20.75
2022-12-07T08:19:32.575Z,19.55
2022-12-07T08:21:36.917Z,20.38
2022-12-07T08:23:41.184Z,20.27
2022-12-07T08:25:45.427Z,20.48
2022-12-07T08:27:51.534Z,20.80
2022-12-07T08:29:55.860Z,21.73
2022-12-07T08:32:07.977Z,24.20
2022-12-07T08:34:14.146Z,22.63
2022-12-07T08:36:19.103Z,21.90
2022-12-07T08:38:25.093Z,21.55
2022-12-07T08:40:33.100Z,19.55
2022-12-07T08:42:41.236Z,18.77
2022-12-07T08:44:48.341Z,18.55
2022-12-07T08:46:56.134Z,18.95
2022-12-07T08:49:04.444Z,17.33
2022-12-07T08:51:09.430Z,16.80
2022-12-07T08:53:13.895Z,19.13
2022-12-07T08:55:18.337Z,18.25
2022-12-07T08:57:22.644Z,18.88
2022-12-07T08:59:28.615Z,18.90
2022-12-07T09:01:34.705Z,19.10
2022-12-07T09:03:39.215Z,18.13
2022-12-07T09:05:43.684Z,20.70
2022-12-07T09:07:52.478Z,20.70
2022-12-07T09:09:57.056Z,21.48
2022-12-07T09:12:01.425Z,21.75
2022-12-07T09:14:05.632Z,22.77
2022-12-07T09:16:10.017Z,23.63
2022-12-07T09:18:15.713Z,22.60
2022-12-07T09:20:23.317Z,22.23
2022-12-07T09:22:32.366Z,21.95
2022-12-07T09:24:36.730Z,20.85
2022-12-07T09:26:41.600Z,22.00
2022-12-07T09:28:45.947Z,23.05
2022-12-07T09:31:22.114Z,23.65
2022-12-07T09:33:17.482Z,24.55
2022-12-07T09:35:21.856Z,25.10
2022-12-07T09:37:26.503Z,24.15
2022-12-07T09:39:30.866Z,25.08
2022-12-07T09:41:35.406Z,23.92
2022-12-07T09:43:42.409Z,23.33
2022-12-07T09:45:48.862Z,22.05
2022-12-07T09:47:53.892Z,22.17
2022-12-07T09:50:06.317Z,21.20
2022-12-07T09:52:21.356Z,22.27
2022-12-07T09:54:25.718Z,20.02
2022-12-07T09:56:32.787Z,20.45
2022-12-07T09:58:37.019Z,20.55
2022-12-07T10:00:42.609Z,20.45
2022-12-07T10:02:49.925Z,20.48
2022-12-07T10:04:55.049Z,20.60
2022-12-07T10:07:00.960Z,20.48
2022-12-07T10:09:10.996Z,20.73
2022-12-07T10:11:17.206Z,20.83
2022-12-07T10:13:23.958Z,19.05
2022-12-07T10:15:48.581Z,19.65
2022-12-07T10:17:54.190Z,19.65
2022-12-07T10:20:16.577Z,19.67
2022-12-07T10:22:23.575Z,20.63
2022-12-07T10:24:30.706Z,21.85
2022-12-07T10:26:36.435Z,21.48
2022-12-07T10:28:42.484Z,22.23
2022-12-07T10:30:57.826Z,23.02
2022-12-07T10:33:02.810Z,22.92
2022-12-07T10:35:28.840Z,23.85
2022-12-07T10:37:43.173Z,21.60
2022-12-07T10:39:49.817Z,22.45
2022-12-07T10:41:58.443Z,23.63
2022-12-07T10:44:02.746Z,23.08
2022-12-07T10:46:47.041Z,22.75
2022-12-07T10:49:01.067Z,23.58
2022-12-07T10:51:14.309Z,22.85
2022-12-07T10:53:35.584Z,23.25
2022-12-07T10:55:56.209Z,22.77
2022-12-07T10:58:23.632Z,24.13
2022-12-07T11:00:29.753Z,23.15
2022-12-07T11:03:16.427Z,24.13
2022-12-07T11:05:29.929Z,22.75
2022-12-07T11:07:45.173Z,24.25
2022-12-07T11:10:10.731Z,23.63
2022-12-07T11:12:24.386Z,25.90
2022-12-07T11:14:39.129Z,25.75
2022-12-07T11:17:04.249Z,27.83
2022-12-07T11:19:27.986Z,29.33
2022-12-07T11:21:42.294Z,29.67
2022-12-07T11:23:53.606Z,26.73
2022-12-07T11:26:07.910Z,26.75
2022-12-07T11:28:24.376Z,27.77
2022-12-07T11:30:35.732Z,27.38
2022-12-07T11:33:03.764Z,28.33
2022-12-07T11:35:16.297Z,29.08
2022-12-07T11:37:24.306Z,28.92
2022-12-07T11:39:32.918Z,29.05
2022-12-07T11:41:42.353Z,26.27
2022-12-07T11:46:06.978Z,26.95
2022-12-07T11:48:18.319Z,27.55
2022-12-07T11:50:32.720Z,27.65
2022-12-07T11:52:46.970Z,25.30
2022-12-07T11:54:54.652Z,25.13
2022-12-07T11:57:06.493Z,25.92
2022-12-07T11:59:15.935Z,25.17
2022-12-07T12:01:37.572Z,25.58
2022-12-07T12:03:51.225Z,24.10
2022-12-07T12:05:57.541Z,23.20
2022-12-07T12:10:43.220Z,21.35
2022-12-07T12:15:48.680Z,21.08
2022-12-07T12:18:31.397Z,22.55
2022-12-07T12:20:42.878Z,20.15
2022-12-07T12:22:51.149Z,21.60
2022-12-07T12:24:57.350Z,22.70
2022-12-07T12:27:06.892Z,22.60
2022-12-07T12:29:24.464Z,21.30
2022-12-07T12:31:37.535Z,22.20
2022-12-07T12:33:47.583Z,23.23
2022-12-07T12:36:21.624Z,22.35
2022-12-07T12:38:35.703Z,22.35
2022-12-07T12:40:50.473Z,22.48
2022-12-07T12:42:57.833Z,21.25
2022-12-07T12:45:21.721Z,20.35
2022-12-07T12:47:58.072Z,21.83
2022-12-07T12:50:21.269Z,23.08
2022-12-07T12:53:07.226Z,23.15
2022-12-07T12:55:21.341Z,22.27
2022-12-07T12:57:30.539Z,23.40
2022-12-07T12:59:37.721Z,23.00
2022-12-07T13:01:46.264Z,23.10
2022-12-07T13:03:57.778Z,24.25
2022-12-07T13:06:21.192Z,23.73
2022-12-07T13:08:34.955Z,22.58
2022-12-07T13:10:47.431Z,25.10
2022-12-07T13:12:58.873Z,26.73
2022-12-07T13:15:04.491Z,25.15
2022-12-07T13:17:12.970Z,25.02
2022-12-07T13:19:55.959Z,25.02
2022-12-07T13:22:00.506Z,22.80
2022-12-07T13:24:11.742Z,23.30
2022-12-07T13:26:20.818Z,23.92
2022-12-07T13:28:28.010Z,25.10
2022-12-07T13:30:32.953Z,24.60
2022-12-07T13:32:38.587Z,23.40
2022-12-07T13:34:44.846Z,24.30
2022-12-07T13:36:49.180Z,23.83
2022-12-07T13:39:00.324Z,24.90
2022-12-07T13:41:06.900Z,24.13
2022-12-07T13:43:17.576Z,23.60
2022-12-07T13:45:45.209Z,24.92
2022-12-07T13:47:55.027Z,24.92
2022-12-07T13:50:00.401Z,26.13
2022-12-07T13:52:18.202Z,32.60
2022-12-07T13:54:23.922Z,27.70
2022-12-07T13:56:33.951Z,32.00
2022-12-07T14:00:44.868Z,25.08
2022-12-07T14:03:03.372Z,24.70
2022-12-07T14:05:11.877Z,26.17
2022-12-07T14:07:25.784Z,26.05
2022-12-07T14:09:31.669Z,22.95
2022-12-07T14:11:36.781Z,24.48
2022-12-07T14:13:46.394Z,25.63
2022-12-07T14:15:53.962Z,23.67
2022-12-07T14:18:04.541Z,25.25
2022-12-07T14:20:34.195Z,24.60
2022-12-07T14:22:39.868Z,25.13
2022-12-07T14:24:45.452Z,24.63
2022-12-07T14:26:51.648Z,23.92
2022-12-07T14:29:15.902Z,24.95
2022-12-07T14:31:29.771Z,24.67
2022-12-07T14:33:36.410Z,24.05
2022-12-07T14:35:41.580Z,25.35
2022-12-07T14:37:48.522Z,26.35
2022-12-07T14:39:53.099Z,24.85
2022-12-07T14:41:57.391Z,24.40
2022-12-07T14:44:22.301Z,24.75
2022-12-07T14:46:26.295Z,24.35
2022-12-07T14:53:39.124Z,25.20
2022-12-07T14:55:43.734Z,24.38
2022-12-07T14:57:48.210Z,24.10
2022-12-07T14:59:52.320Z,25.40
2022-12-07T15:01:56.532Z,24.60
2022-12-07T15:04:01.407Z,25.25
2022-12-07T15:06:09.246Z,24.88
2022-12-07T15:08:15.078Z,24.33
2022-12-07T15:10:24.201Z,23.58
2022-12-07T15:12:28.803Z,24.17
2022-12-07T15:14:34.235Z,22.95
2022-12-07T15:17:07.015Z,23.65
2022-12-07T15:19:27.430Z,23.48
2022-12-07T15:21:31.267Z,23.35
2022-12-07T15:23:36.299Z,24.10
2022-12-07T15:25:43.677Z,23.23
2022-12-07T15:27:47.984Z,24.08
2022-12-07T15:29:52.256Z,22.40
2022-12-07T15:31:58.060Z,23.15
2022-12-07T15:34:02.761Z,23.60
2022-12-07T15:36:07.695Z,24.05
2022-12-07T15:38:14.686Z,23.25
2022-12-07T15:40:21.789Z,24.67
2022-12-07T15:42:25.900Z,25.13
2022-12-07T15:44:47.490Z,26.77
2022-12-07T15:46:54.076Z,25.17
2022-12-07T15:48:58.582Z,25.85
2022-12-07T15:51:06.867Z,25.05
2022-12-07T15:53:16.092Z,24.55
2022-12-07T15:55:20.408Z,23.95
2022-12-07T15:57:25.731Z,26.40
2022-12-07T15:59:30.906Z,24.38
2022-12-07T16:01:35.223Z,26.33
2022-12-07T16:03:39.471Z,27.17
2022-12-07T16:05:43.858Z,25.60
2022-12-07T16:07:48.511Z,28.30
2022-12-07T16:09:57.045Z,26.27
2022-12-07T16:12:01.265Z,27.00
2022-12-07T16:14:06.432Z,24.77
2022-12-07T16:16:13.338Z,24.90
2022-12-07T16:18:18.274Z,26.30
2022-12-07T16:20:22.464Z,27.25
2022-12-07T16:22:28.801Z,27.25
2022-12-07T16:24:33.493Z,27.15
2022-12-07T16:26:42.642Z,29.10
2022-12-07T16:28:52.562Z,28.08
2022-12-07T16:31:03.781Z,28.05
2022-12-07T16:33:08.002Z,29.70
2022-12-07T16:35:12.802Z,32.63
2022-12-07T16:37:17.050Z,32.03
2022-12-07T16:39:21.265Z,35.17
2022-12-07T16:41:25.717Z,36.50
2022-12-07T16:43:31.719Z,35.30
2022-12-07T16:45:35.812Z,33.85
2022-12-07T16:47:40.458Z,37.58
2022-12-07T16:49:45.445Z,37.58
2022-12-07T16:52:08.842Z,36.83
2022-12-07T16:54:16.152Z,35.88
2022-12-07T16:56:20.664Z,37.40
2022-12-07T16:58:24.857Z,39.45
2022-12-07T17:00:30.527Z,40.03
2022-12-07T17:02:34.746Z,36.70
2022-12-07T17:04:40.682Z,38.42
2022-12-07T17:06:44.749Z,42.13
2022-12-07T17:08:49.667Z,39.38
2022-12-07T17:10:53.820Z,38.95
2022-12-07T17:12:58.336Z,38.92
2022-12-07T17:15:19.556Z,41.35
2022-12-07T17:17:25.756Z,39.42
2022-12-07T17:19:29.910Z,40.65
2022-12-07T17:21:34.382Z,38.95
2022-12-07T17:23:39.293Z,45.85
2022-12-07T17:25:43.522Z,48.50
2022-12-07T17:27:48.790Z,45.33
2022-12-07T17:29:53.026Z,43.92
2022-12-07T17:31:57.208Z,42.80
2022-12-07T17:34:03.294Z,42.08
2022-12-07T17:36:12.691Z,38.30
2022-12-07T17:38:16.942Z,39.35
2022-12-07T17:40:21.273Z,41.85
2022-12-07T17:42:37.836Z,40.00
2022-12-07T17:44:42.005Z,40.05
2022-12-07T17:46:49.163Z,41.42
2022-12-07T17:48:55.886Z,40.75
2022-12-07T17:51:23.218Z,39.63
2022-12-07T17:53:27.337Z,39.63
2022-12-07T17:55:49.532Z,39.60
2022-12-07T17:57:55.798Z,40.95
2022-12-07T18:00:00.524Z,38.63
2022-12-07T18:02:05.486Z,37.38
2022-12-07T18:04:10.035Z,38.95
2022-12-07T18:06:15.699Z,40.97
2022-12-07T18:08:20.086Z,40.30
2022-12-07T18:10:24.338Z,39.08
2022-12-07T18:12:28.670Z,39.17
2022-12-07T18:14:32.877Z,40.50
2022-12-07T18:16:37.413Z,41.60
2022-12-07T18:18:45.367Z,40.65
2022-12-07T18:20:53.492Z,41.60
2022-12-07T18:22:59.082Z,41.20
2022-12-07T18:25:03.668Z,41.50
2022-12-07T18:27:11.348Z,38.95
2022-12-07T18:29:17.243Z,38.97
2022-12-07T18:31:21.636Z,38.60
2022-12-07T18:33:25.846Z,38.08
2022-12-07T18:35:30.067Z,39.67
2022-12-07T18:37:34.246Z,38.20
2022-12-07T18:39:54.790Z,39.35
2022-12-07T18:42:01.980Z,40.55
2022-12-07T18:44:07.709Z,39.38
2022-12-07T18:46:13.133Z,39.03
2022-12-07T18:48:20.610Z,41.17
2022-12-07T18:50:39.474Z,44.45
2022-12-07T18:52:47.813Z,45.63
2022-12-07T18:54:56.862Z,46.67
2022-12-07T18:57:01.414Z,47.53
2022-12-07T18:59:27.590Z,46.90
2022-12-07T19:01:32.917Z,48.28
2022-12-07T19:03:56.786Z,47.10
2022-12-07T19:06:50.752Z,44.05
2022-12-07T19:12:31.611Z,42.85
2022-12-07T19:15:05.230Z,47.33
2022-12-07T19:23:23.829Z,49.40
2022-12-07T19:25:35.568Z,50.95
2022-12-07T19:28:04.064Z,48.78
2022-12-07T19:35:28.941Z,48.40
2022-12-07T19:38:11.744Z,48.78
2022-12-07T19:40:36.818Z,48.30
2022-12-07T19:46:47.221Z,44.10
2022-12-07T19:50:24.528Z,47.05
2022-12-07T19:53:11.669Z,47.58
2022-12-07T19:55:16.658Z,45.65
2022-12-07T19:57:57.762Z,46.80
2022-12-07T20:00:03.836Z,46.30
2022-12-07T20:02:14.896Z,44.25
2022-12-07T20:04:20.836Z,44.10
2022-12-07T20:06:26.463Z,44.97
2022-12-07T20:08:30.657Z,45.20
2022-12-07T20:10:34.962Z,44.35
2022-12-07T20:12:56.553Z,41.75
2022-12-07T20:15:01.129Z,43.30
2022-12-07T20:17:15.820Z,43.28
2022-12-07T20:19:39.935Z,44.05
2022-12-07T20:21:47.791Z,43.33
2022-12-07T20:23:52.375Z,44.08
2022-12-07T20:25:57.694Z,49.80
2022-12-07T20:28:01.874Z,55.45
2022-12-07T20:30:07.156Z,50.92
2022-12-07T20:32:14.220Z,47.95
2022-12-07T20:34:18.889Z,45.55
2022-12-07T20:36:23.093Z,50.03
2022-12-07T20:38:27.336Z,45.58
2022-12-07T20:40:31.695Z,48.45
2022-12-07T20:42:37.489Z,49.80
2022-12-07T20:44:41.792Z,72.47
2022-12-07T20:46:47.167Z,53.10
2022-12-07T20:48:53.449Z,52.53
2022-12-07T20:51:06.760Z,44.72
2022-12-07T20:53:11.252Z,43.20
2022-12-07T20:55:15.570Z,43.50
2022-12-07T20:57:19.782Z,43.45
2022-12-07T20:59:25.056Z,43.42
2022-12-07T21:01:30.029Z,43.60
2022-12-07T21:03:34.194Z,46.10
2022-12-07T21:05:39.821Z,47.78
2022-12-07T21:07:44.189Z,41.83
2022-12-07T21:09:48.642Z,44.53
2022-12-07T21:11:52.979Z,44.30
2022-12-07T21:13:57.285Z,45.17
2022-12-07T21:16:01.699Z,43.28
2022-12-07T21:18:07.658Z,43.08
2022-12-07T21:20:12.304Z,45.63
2022-12-07T21:22:17.798Z,45.67
2022-12-07T21:24:22.009Z,47.53
2022-12-07T21:26:27.394Z,47.10
2022-12-07T21:28:32.446Z,43.78
2022-12-07T21:31:04.743Z,45.05
2022-12-07T21:33:01.338Z,46.22
2022-12-07T21:35:06.346Z,48.45
2022-12-07T21:37:11.151Z,46.15
2022-12-07T21:39:17.753Z,46.47
2022-12-07T21:41:24.669Z,45.25
2022-12-07T21:43:28.764Z,48.35
2022-12-07T21:45:33.420Z,46.05
2022-12-07T21:47:37.547Z,44.78
2022-12-07T21:49:42.007Z,45.50
2022-12-07T21:51:46.654Z,47.10
2022-12-07T21:53:53.767Z,46.33
2022-12-07T21:55:59.675Z,46.78
2022-12-07T21:58:03.856Z,44.55
2022-12-07T22:00:09.462Z,43.50
2022-12-07T22:02:15.895Z,43.58
2022-12-07T22:04:22.506Z,42.75
2022-12-07T22:06:28.772Z,42.13
2022-12-07T22:08:32.895Z,42.72
2022-12-07T22:10:37.043Z,44.95
2022-12-07T22:12:42.547Z,40.03
2022-12-07T22:15:03.995Z,40.70
2022-12-07T22:17:08.469Z,36.17
2022-12-07T22:19:12.767Z,37.88
2022-12-07T22:21:17.527Z,37.88
2022-12-07T22:23:21.761Z,37.25
2022-12-07T22:25:25.867Z,36.10
2022-12-07T22:27:30.709Z,37.00
2022-12-07T22:29:36.279Z,35.50
2022-12-07T22:31:41.583Z,35.38
2022-12-07T22:33:46.207Z,36.92
2022-12-07T22:35:54.079Z,37.33
2022-12-07T22:37:58.189Z,33.85
2022-12-07T22:40:02.417Z,36.08
2022-12-07T22:42:07.500Z,34.97
2022-12-07T22:44:11.949Z,35.97
2022-12-07T22:46:17.540Z,34.92
2022-12-07T22:48:21.699Z,36.33
2022-12-07T22:50:25.831Z,35.65
2022-12-07T22:52:29.964Z,34.67
2022-12-07T22:54:34.235Z,35.97
2022-12-07T22:56:39.654Z,35.67
2022-12-07T22:58:44.399Z,36.72
2022-12-07T23:00:48.639Z,35.67
2022-12-07T23:02:54.257Z,35.88
2022-12-07T23:04:58.391Z,35.58
2022-12-07T23:07:02.591Z,36.10
2022-12-07T23:09:09.166Z,35.72
2022-12-07T23:11:37.502Z,35.17
2022-12-07T23:13:41.864Z,36.38
2022-12-07T23:15:46.149Z,37.28
2022-12-07T23:17:50.283Z,35.78
2022-12-07T23:19:56.458Z,35.50
2022-12-07T23:22:00.946Z,35.05
2022-12-07T23:24:05.464Z,35.72
2022-12-07T23:26:11.357Z,35.47
2022-12-07T23:28:15.566Z,37.80
2022-12-07T23:30:19.922Z,35.95
2022-12-07T23:32:24.193Z,35.85
2022-12-07T23:34:28.374Z,37.50
2022-12-07T23:36:34.100Z,37.55
2022-12-07T23:38:38.973Z,37.78
2022-12-07T23:40:43.529Z,37.10
2022-12-07T23:42:47.708Z,36.22
2022-12-07T23:44:51.915Z,36.95
2022-12-07T23:46:56.248Z,35.83
2022-12-07T23:49:02.829Z,34.33
2022-12-07T23:51:08.430Z,34.63
2022-12-07T23:53:14.248Z,35.25
2022-12-07T23:55:18.697Z,35.80
2022-12-07T23:57:22.925Z,34.50
2022-12-07T23:59:27.139Z,35.00
